sensor_id;sensor_type;location;lat;lon;timestamp;P1;durP1;ratioP1;P2;durP2;ratioP2
36359;SDS011;22388;52.432;20.662;2023-11-19T00:00:42;63.25;;;33.50;;
36359;SDS011;22388;52.432;20.662;2023-11-19T00:04:06;63.22;;;33.55;;
36359;SDS011;22388;52.432;20.662;2023-11-19T00:07:34;60.50;;;32.63;;
36359;SDS011;22388;52.432;20.662;2023-11-19T00:10:58;59.85;;;33.40;;
36359;SDS011;22388;52.432;20.662;2023-11-19T00:14:23;61.67;;;33.80;;
36359;SDS011;22388;52.432;20.662;2023-11-19T00:17:49;60.92;;;32.90;;
36359;SDS011;22388;52.432;20.662;2023-11-19T00:21:15;58.80;;;33.65;;
36359;SDS011;22388;52.432;20.662;2023-11-19T00:24:39;67.10;;;34.72;;
36359;SDS011;22388;52.432;20.662;2023-11-19T00:28:04;62.42;;;34.15;;
36359;SDS011;22388;52.432;20.662;2023-11-19T00:31:28;61.30;;;33.10;;
36359;SDS011;22388;52.432;20.662;2023-11-19T00:34:52;60.58;;;32.53;;
36359;SDS011;22388;52.432;20.662;2023-11-19T00:38:16;55.40;;;31.83;;
36359;SDS011;22388;52.432;20.662;2023-11-19T00:41:40;61.33;;;32.65;;
36359;SDS011;22388;52.432;20.662;2023-11-19T00:45:05;59.85;;;33.13;;
36359;SDS011;22388;52.432;20.662;2023-11-19T00:48:30;56.45;;;31.02;;
36359;SDS011;22388;52.432;20.662;2023-11-19T00:51:54;63.80;;;34.03;;
36359;SDS011;22388;52.432;20.662;2023-11-19T00:55:19;62.33;;;33.80;;
36359;SDS011;22388;52.432;20.662;2023-11-19T00:58:44;70.18;;;35.47;;
36359;SDS011;22388;52.432;20.662;2023-11-19T01:02:08;62.53;;;35.28;;
36359;SDS011;22388;52.432;20.662;2023-11-19T01:05:32;56.10;;;32.55;;
36359;SDS011;22388;52.432;20.662;2023-11-19T01:08:57;58.97;;;32.63;;
36359;SDS011;22388;52.432;20.662;2023-11-19T01:12:21;63.63;;;33.90;;
36359;SDS011;22388;52.432;20.662;2023-11-19T01:15:45;64.10;;;32.10;;
36359;SDS011;22388;52.432;20.662;2023-11-19T01:19:10;60.28;;;32.72;;
36359;SDS011;22388;52.432;20.662;2023-11-19T01:22:37;60.45;;;32.58;;
36359;SDS011;22388;52.432;20.662;2023-11-19T01:26:02;63.75;;;33.00;;
36359;SDS011;22388;52.432;20.662;2023-11-19T01:29:26;62.75;;;30.50;;
36359;SDS011;22388;52.432;20.662;2023-11-19T01:32:51;57.88;;;30.88;;
36359;SDS011;22388;52.432;20.662;2023-11-19T01:36:15;57.00;;;30.60;;
36359;SDS011;22388;52.432;20.662;2023-11-19T01:39:39;56.50;;;30.35;;
36359;SDS011;22388;52.432;20.662;2023-11-19T01:43:03;60.05;;;31.52;;
36359;SDS011;22388;52.432;20.662;2023-11-19T01:46:28;62.33;;;32.10;;
36359;SDS011;22388;52.432;20.662;2023-11-19T01:49:52;59.33;;;31.63;;
36359;SDS011;22388;52.432;20.662;2023-11-19T01:53:17;61.95;;;31.63;;
36359;SDS011;22388;52.432;20.662;2023-11-19T01:56:41;64.35;;;32.15;;
36359;SDS011;22388;52.432;20.662;2023-11-19T02:00:06;76.10;;;35.05;;
36359;SDS011;22388;52.432;20.662;2023-11-19T02:03:32;70.15;;;36.10;;
36359;SDS011;22388;52.432;20.662;2023-11-19T02:06:57;69.78;;;34.92;;
36359;SDS011;22388;52.432;20.662;2023-11-19T02:10:22;69.28;;;34.28;;
36359;SDS011;22388;52.432;20.662;2023-11-19T02:13:46;75.25;;;34.20;;
36359;SDS011;22388;52.432;20.662;2023-11-19T02:17:29;74.50;;;35.83;;
36359;SDS011;22388;52.432;20.662;2023-11-19T02:24:18;71.90;;;32.92;;
36359;SDS011;22388;52.432;20.662;2023-11-19T02:27:55;69.20;;;32.38;;
36359;SDS011;22388;52.432;20.662;2023-11-19T02:31:21;72.60;;;32.88;;
36359;SDS011;22388;52.432;20.662;2023-11-19T02:34:45;67.07;;;31.85;;
36359;SDS011;22388;52.432;20.662;2023-11-19T02:38:09;70.47;;;31.20;;
36359;SDS011;22388;52.432;20.662;2023-11-19T02:41:37;63.58;;;31.13;;
36359;SDS011;22388;52.432;20.662;2023-11-19T02:45:01;67.07;;;32.88;;
36359;SDS011;22388;52.432;20.662;2023-11-19T02:48:33;66.05;;;33.97;;
36359;SDS011;22388;52.432;20.662;2023-11-19T02:51:57;71.53;;;34.92;;
36359;SDS011;22388;52.432;20.662;2023-11-19T02:55:22;74.10;;;35.78;;
36359;SDS011;22388;52.432;20.662;2023-11-19T02:58:53;72.03;;;34.63;;
36359;SDS011;22388;52.432;20.662;2023-11-19T03:02:19;72.78;;;33.65;;
36359;SDS011;22388;52.432;20.662;2023-11-19T03:05:48;76.68;;;34.53;;
36359;SDS011;22388;52.432;20.662;2023-11-19T03:09:12;66.78;;;33.40;;
36359;SDS011;22388;52.432;20.662;2023-11-19T03:12:40;72.75;;;34.05;;
36359;SDS011;22388;52.432;20.662;2023-11-19T03:16:05;70.22;;;35.35;;
36359;SDS011;22388;52.432;20.662;2023-11-19T03:19:30;70.57;;;33.95;;
36359;SDS011;22388;52.432;20.662;2023-11-19T03:22:55;66.60;;;34.05;;
36359;SDS011;22388;52.432;20.662;2023-11-19T03:26:20;73.28;;;35.80;;
36359;SDS011;22388;52.432;20.662;2023-11-19T03:29:44;75.32;;;34.85;;
36359;SDS011;22388;52.432;20.662;2023-11-19T03:33:08;73.57;;;35.42;;
36359;SDS011;22388;52.432;20.662;2023-11-19T03:36:32;67.93;;;34.40;;
36359;SDS011;22388;52.432;20.662;2023-11-19T03:39:57;76.28;;;35.67;;
36359;SDS011;22388;52.432;20.662;2023-11-19T03:43:21;69.38;;;34.80;;
36359;SDS011;22388;52.432;20.662;2023-11-19T03:46:46;76.30;;;36.67;;
36359;SDS011;22388;52.432;20.662;2023-11-19T03:50:10;74.35;;;35.45;;
36359;SDS011;22388;52.432;20.662;2023-11-19T03:53:35;66.38;;;34.22;;
36359;SDS011;22388;52.432;20.662;2023-11-19T03:56:59;65.85;;;33.15;;
36359;SDS011;22388;52.432;20.662;2023-11-19T04:00:23;68.82;;;32.42;;
36359;SDS011;22388;52.432;20.662;2023-11-19T04:03:47;69.10;;;33.50;;
36359;SDS011;22388;52.432;20.662;2023-11-19T04:07:11;67.78;;;32.83;;
36359;SDS011;22388;52.432;20.662;2023-11-19T04:10:35;71.55;;;34.40;;
36359;SDS011;22388;52.432;20.662;2023-11-19T04:14:00;67.15;;;31.63;;
36359;SDS011;22388;52.432;20.662;2023-11-19T04:17:24;63.92;;;32.53;;
36359;SDS011;22388;52.432;20.662;2023-11-19T04:20:49;65.28;;;32.55;;
36359;SDS011;22388;52.432;20.662;2023-11-19T04:24:14;64.97;;;33.28;;
36359;SDS011;22388;52.432;20.662;2023-11-19T04:27:39;63.38;;;32.20;;
36359;SDS011;22388;52.432;20.662;2023-11-19T04:31:03;71.85;;;33.10;;
36359;SDS011;22388;52.432;20.662;2023-11-19T04:34:27;70.97;;;34.65;;
36359;SDS011;22388;52.432;20.662;2023-11-19T04:37:52;61.60;;;31.58;;
36359;SDS011;22388;52.432;20.662;2023-11-19T04:41:16;70.90;;;33.28;;
36359;SDS011;22388;52.432;20.662;2023-11-19T04:44:42;65.88;;;32.03;;
36359;SDS011;22388;52.432;20.662;2023-11-19T04:48:07;69.07;;;32.28;;
36359;SDS011;22388;52.432;20.662;2023-11-19T04:51:31;74.90;;;34.88;;
36359;SDS011;22388;52.432;20.662;2023-11-19T04:54:55;74.15;;;35.65;;
36359;SDS011;22388;52.432;20.662;2023-11-19T04:58:19;76.07;;;34.47;;
36359;SDS011;22388;52.432;20.662;2023-11-19T05:01:46;76.80;;;34.45;;
36359;SDS011;22388;52.432;20.662;2023-11-19T05:05:10;85.60;;;34.67;;
36359;SDS011;22388;52.432;20.662;2023-11-19T05:08:35;85.90;;;37.28;;
36359;SDS011;22388;52.432;20.662;2023-11-19T05:11:59;85.65;;;35.05;;
36359;SDS011;22388;52.432;20.662;2023-11-19T05:15:23;84.75;;;35.90;;
36359;SDS011;22388;52.432;20.662;2023-11-19T05:18:47;88.13;;;36.35;;
36359;SDS011;22388;52.432;20.662;2023-11-19T05:22:12;85.55;;;34.90;;
36359;SDS011;22388;52.432;20.662;2023-11-19T05:25:37;86.25;;;36.72;;
36359;SDS011;22388;52.432;20.662;2023-11-19T05:29:01;94.53;;;38.70;;
36359;SDS011;22388;52.432;20.662;2023-11-19T05:32:25;96.50;;;36.60;;
36359;SDS011;22388;52.432;20.662;2023-11-19T05:35:49;98.82;;;37.58;;
36359;SDS011;22388;52.432;20.662;2023-11-19T05:39:15;92.50;;;37.08;;
36359;SDS011;22388;52.432;20.662;2023-11-19T05:42:40;96.45;;;39.63;;
36359;SDS011;22388;52.432;20.662;2023-11-19T05:46:05;88.35;;;37.85;;
36359;SDS011;22388;52.432;20.662;2023-11-19T05:49:29;96.10;;;38.40;;
36359;SDS011;22388;52.432;20.662;2023-11-19T05:52:54;97.70;;;37.67;;
36359;SDS011;22388;52.432;20.662;2023-11-19T05:56:20;114.38;;;40.30;;
36359;SDS011;22388;52.432;20.662;2023-11-19T05:59:50;97.55;;;38.80;;
36359;SDS011;22388;52.432;20.662;2023-11-19T06:03:16;102.53;;;37.78;;
36359;SDS011;22388;52.432;20.662;2023-11-19T06:06:41;113.80;;;40.17;;
36359;SDS011;22388;52.432;20.662;2023-11-19T06:10:06;101.50;;;40.28;;
36359;SDS011;22388;52.432;20.662;2023-11-19T06:13:31;96.95;;;38.42;;
36359;SDS011;22388;52.432;20.662;2023-11-19T06:16:55;104.40;;;40.90;;
36359;SDS011;22388;52.432;20.662;2023-11-19T06:20:19;102.88;;;37.53;;
36359;SDS011;22388;52.432;20.662;2023-11-19T06:23:44;104.18;;;42.17;;
36359;SDS011;22388;52.432;20.662;2023-11-19T06:27:08;97.22;;;39.22;;
36359;SDS011;22388;52.432;20.662;2023-11-19T06:30:32;95.05;;;37.60;;
36359;SDS011;22388;52.432;20.662;2023-11-19T06:33:56;105.15;;;39.47;;
36359;SDS011;22388;52.432;20.662;2023-11-19T06:37:21;96.82;;;38.53;;
36359;SDS011;22388;52.432;20.662;2023-11-19T06:40:45;109.82;;;39.53;;
36359;SDS011;22388;52.432;20.662;2023-11-19T06:44:10;103.95;;;40.05;;
36359;SDS011;22388;52.432;20.662;2023-11-19T06:47:34;105.78;;;39.72;;
36359;SDS011;22388;52.432;20.662;2023-11-19T06:50:59;92.80;;;38.80;;
36359;SDS011;22388;52.432;20.662;2023-11-19T06:54:23;102.50;;;38.53;;
36359;SDS011;22388;52.432;20.662;2023-11-19T06:57:47;90.82;;;37.65;;
36359;SDS011;22388;52.432;20.662;2023-11-19T07:01:13;93.00;;;35.60;;
36359;SDS011;22388;52.432;20.662;2023-11-19T07:04:37;86.05;;;34.55;;
36359;SDS011;22388;52.432;20.662;2023-11-19T07:08:03;83.53;;;36.40;;
36359;SDS011;22388;52.432;20.662;2023-11-19T07:11:35;85.43;;;35.08;;
36359;SDS011;22388;52.432;20.662;2023-11-19T07:15:00;80.88;;;35.15;;
36359;SDS011;22388;52.432;20.662;2023-11-19T07:18:25;90.35;;;36.50;;
36359;SDS011;22388;52.432;20.662;2023-11-19T07:21:49;81.47;;;33.83;;
36359;SDS011;22388;52.432;20.662;2023-11-19T07:25:13;73.43;;;32.10;;
36359;SDS011;22388;52.432;20.662;2023-11-19T07:28:38;73.65;;;31.48;;
36359;SDS011;22388;52.432;20.662;2023-11-19T07:32:02;67.72;;;28.92;;
36359;SDS011;22388;52.432;20.662;2023-11-19T07:35:29;65.25;;;30.50;;
36359;SDS011;22388;52.432;20.662;2023-11-19T07:38:53;62.80;;;29.73;;
36359;SDS011;22388;52.432;20.662;2023-11-19T07:42:17;60.15;;;28.17;;
36359;SDS011;22388;52.432;20.662;2023-11-19T07:45:41;54.95;;;27.33;;
36359;SDS011;22388;52.432;20.662;2023-11-19T07:49:07;50.90;;;25.08;;
36359;SDS011;22388;52.432;20.662;2023-11-19T07:52:31;50.30;;;24.25;;
36359;SDS011;22388;52.432;20.662;2023-11-19T07:55:55;51.05;;;24.63;;
36359;SDS011;22388;52.432;20.662;2023-11-19T07:59:20;45.75;;;22.80;;
36359;SDS011;22388;52.432;20.662;2023-11-19T08:02:44;40.88;;;21.75;;
36359;SDS011;22388;52.432;20.662;2023-11-19T08:06:09;40.10;;;21.15;;
36359;SDS011;22388;52.432;20.662;2023-11-19T08:09:33;36.05;;;19.35;;
36359;SDS011;22388;52.432;20.662;2023-11-19T08:12:58;34.80;;;20.05;;
36359;SDS011;22388;52.432;20.662;2023-11-19T08:16:22;35.08;;;17.75;;
36359;SDS011;22388;52.432;20.662;2023-11-19T08:19:48;32.10;;;16.83;;
36359;SDS011;22388;52.432;20.662;2023-11-19T08:23:17;32.22;;;18.23;;
36359;SDS011;22388;52.432;20.662;2023-11-19T08:26:41;30.17;;;16.48;;
36359;SDS011;22388;52.432;20.662;2023-11-19T08:30:06;30.40;;;16.52;;
36359;SDS011;22388;52.432;20.662;2023-11-19T08:33:30;31.67;;;17.67;;
36359;SDS011;22388;52.432;20.662;2023-11-19T08:36:54;27.17;;;16.17;;
36359;SDS011;22388;52.432;20.662;2023-11-19T08:40:19;29.38;;;16.73;;
36359;SDS011;22388;52.432;20.662;2023-11-19T08:43:44;28.25;;;14.60;;
36359;SDS011;22388;52.432;20.662;2023-11-19T08:47:09;24.45;;;14.65;;
36359;SDS011;22388;52.432;20.662;2023-11-19T08:50:33;26.42;;;15.07;;
36359;SDS011;22388;52.432;20.662;2023-11-19T08:53:58;26.02;;;15.77;;
36359;SDS011;22388;52.432;20.662;2023-11-19T08:57:22;26.05;;;15.77;;
36359;SDS011;22388;52.432;20.662;2023-11-19T09:00:46;26.65;;;15.25;;
36359;SDS011;22388;52.432;20.662;2023-11-19T09:04:11;26.95;;;16.40;;
36359;SDS011;22388;52.432;20.662;2023-11-19T09:07:35;26.67;;;15.95;;
36359;SDS011;22388;52.432;20.662;2023-11-19T09:10:59;27.10;;;16.17;;
36359;SDS011;22388;52.432;20.662;2023-11-19T09:14:27;24.58;;;14.95;;
36359;SDS011;22388;52.432;20.662;2023-11-19T09:17:51;26.17;;;15.68;;
36359;SDS011;22388;52.432;20.662;2023-11-19T09:21:15;24.33;;;14.80;;
36359;SDS011;22388;52.432;20.662;2023-11-19T09:24:39;24.30;;;14.98;;
36359;SDS011;22388;52.432;20.662;2023-11-19T09:28:03;27.40;;;15.85;;
36359;SDS011;22388;52.432;20.662;2023-11-19T09:31:27;25.13;;;15.75;;
36359;SDS011;22388;52.432;20.662;2023-11-19T09:34:52;27.45;;;16.48;;
36359;SDS011;22388;52.432;20.662;2023-11-19T09:38:16;25.77;;;15.50;;
36359;SDS011;22388;52.432;20.662;2023-11-19T09:41:40;24.02;;;15.25;;
36359;SDS011;22388;52.432;20.662;2023-11-19T09:45:14;26.77;;;15.63;;
36359;SDS011;22388;52.432;20.662;2023-11-19T09:48:40;28.70;;;16.13;;
36359;SDS011;22388;52.432;20.662;2023-11-19T09:52:04;27.80;;;15.75;;
36359;SDS011;22388;52.432;20.662;2023-11-19T09:55:28;29.67;;;15.85;;
36359;SDS011;22388;52.432;20.662;2023-11-19T09:58:54;28.02;;;17.15;;
36359;SDS011;22388;52.432;20.662;2023-11-19T10:02:18;27.73;;;17.15;;
36359;SDS011;22388;52.432;20.662;2023-11-19T10:05:43;26.63;;;16.02;;
36359;SDS011;22388;52.432;20.662;2023-11-19T10:09:07;27.27;;;16.35;;
36359;SDS011;22388;52.432;20.662;2023-11-19T10:12:32;25.05;;;16.08;;
36359;SDS011;22388;52.432;20.662;2023-11-19T10:15:56;27.95;;;17.30;;
36359;SDS011;22388;52.432;20.662;2023-11-19T10:19:21;27.58;;;16.02;;
36359;SDS011;22388;52.432;20.662;2023-11-19T10:22:45;28.92;;;16.83;;
36359;SDS011;22388;52.432;20.662;2023-11-19T10:26:13;31.40;;;17.77;;
36359;SDS011;22388;52.432;20.662;2023-11-19T10:29:40;29.02;;;16.95;;
36359;SDS011;22388;52.432;20.662;2023-11-19T10:33:04;33.55;;;18.60;;
36359;SDS011;22388;52.432;20.662;2023-11-19T10:36:39;29.17;;;18.48;;
36359;SDS011;22388;52.432;20.662;2023-11-19T10:40:04;31.95;;;18.67;;
36359;SDS011;22388;52.432;20.662;2023-11-19T10:43:30;34.80;;;20.05;;
36359;SDS011;22388;52.432;20.662;2023-11-19T10:47:01;30.30;;;18.65;;
36359;SDS011;22388;52.432;20.662;2023-11-19T10:50:26;30.23;;;18.20;;
36359;SDS011;22388;52.432;20.662;2023-11-19T10:53:50;29.02;;;17.77;;
36359;SDS011;22388;52.432;20.662;2023-11-19T10:57:19;29.83;;;17.73;;
36359;SDS011;22388;52.432;20.662;2023-11-19T11:00:45;31.73;;;18.80;;
36359;SDS011;22388;52.432;20.662;2023-11-19T11:04:12;33.72;;;18.48;;
36359;SDS011;22388;52.432;20.662;2023-11-19T11:07:37;29.08;;;17.33;;
36359;SDS011;22388;52.432;20.662;2023-11-19T11:11:02;30.33;;;17.70;;
36359;SDS011;22388;52.432;20.662;2023-11-19T11:14:28;33.72;;;18.88;;
36359;SDS011;22388;52.432;20.662;2023-11-19T11:17:55;34.50;;;19.40;;
36359;SDS011;22388;52.432;20.662;2023-11-19T11:21:22;31.00;;;18.05;;
36359;SDS011;22388;52.432;20.662;2023-11-19T11:24:53;28.75;;;17.25;;
36359;SDS011;22388;52.432;20.662;2023-11-19T11:28:31;30.02;;;18.50;;
36359;SDS011;22388;52.432;20.662;2023-11-19T11:39:33;33.33;;;19.13;;
36359;SDS011;22388;52.432;20.662;2023-11-19T11:42:57;30.73;;;18.95;;
36359;SDS011;22388;52.432;20.662;2023-11-19T11:50:14;33.20;;;18.65;;
36359;SDS011;22388;52.432;20.662;2023-11-19T11:53:38;30.05;;;17.80;;
36359;SDS011;22388;52.432;20.662;2023-11-19T11:57:03;30.20;;;18.33;;
36359;SDS011;22388;52.432;20.662;2023-11-19T12:00:36;31.92;;;19.20;;
36359;SDS011;22388;52.432;20.662;2023-11-19T12:04:01;31.98;;;19.60;;
36359;SDS011;22388;52.432;20.662;2023-11-19T12:07:28;34.72;;;20.83;;
36359;SDS011;22388;52.432;20.662;2023-11-19T12:10:54;35.47;;;20.17;;
36359;SDS011;22388;52.432;20.662;2023-11-19T12:18:31;36.92;;;22.05;;
36359;SDS011;22388;52.432;20.662;2023-11-19T12:21:56;32.63;;;20.20;;
36359;SDS011;22388;52.432;20.662;2023-11-19T12:25:24;37.15;;;20.92;;
36359;SDS011;22388;52.432;20.662;2023-11-19T12:29:00;33.50;;;20.10;;
36359;SDS011;22388;52.432;20.662;2023-11-19T12:32:24;35.38;;;20.08;;
36359;SDS011;22388;52.432;20.662;2023-11-19T12:35:48;32.17;;;20.10;;
36359;SDS011;22388;52.432;20.662;2023-11-19T12:39:12;32.55;;;19.27;;
36359;SDS011;22388;52.432;20.662;2023-11-19T12:42:38;35.35;;;20.40;;
36359;SDS011;22388;52.432;20.662;2023-11-19T12:46:21;32.97;;;18.83;;
36359;SDS011;22388;52.432;20.662;2023-11-19T12:49:55;30.80;;;18.52;;
36359;SDS011;22388;52.432;20.662;2023-11-19T12:53:21;35.72;;;20.17;;
36359;SDS011;22388;52.432;20.662;2023-11-19T12:56:52;33.38;;;20.35;;
36359;SDS011;22388;52.432;20.662;2023-11-19T13:00:20;33.47;;;20.38;;
36359;SDS011;22388;52.432;20.662;2023-11-19T13:03:45;33.28;;;20.20;;
36359;SDS011;22388;52.432;20.662;2023-11-19T13:07:09;33.58;;;19.98;;
36359;SDS011;22388;52.432;20.662;2023-11-19T13:14:13;32.75;;;20.42;;
36359;SDS011;22388;52.432;20.662;2023-11-19T13:17:52;33.00;;;19.63;;
36359;SDS011;22388;52.432;20.662;2023-11-19T13:21:16;34.50;;;19.90;;
36359;SDS011;22388;52.432;20.662;2023-11-19T13:24:40;35.63;;;20.38;;
36359;SDS011;22388;52.432;20.662;2023-11-19T13:28:05;34.28;;;20.77;;
36359;SDS011;22388;52.432;20.662;2023-11-19T13:31:29;32.55;;;20.33;;
36359;SDS011;22388;52.432;20.662;2023-11-19T13:34:53;35.17;;;21.33;;
36359;SDS011;22388;52.432;20.662;2023-11-19T13:38:18;35.00;;;20.27;;
36359;SDS011;22388;52.432;20.662;2023-11-19T13:41:47;35.60;;;21.20;;
36359;SDS011;22388;52.432;20.662;2023-11-19T13:45:12;35.00;;;19.17;;
36359;SDS011;22388;52.432;20.662;2023-11-19T13:48:36;34.15;;;19.88;;
36359;SDS011;22388;52.432;20.662;2023-11-19T13:52:03;35.15;;;20.30;;
36359;SDS011;22388;52.432;20.662;2023-11-19T13:55:27;39.03;;;22.10;;
36359;SDS011;22388;52.432;20.662;2023-11-19T13:58:54;38.60;;;22.42;;
36359;SDS011;22388;52.432;20.662;2023-11-19T14:02:18;40.45;;;22.38;;
36359;SDS011;22388;52.432;20.662;2023-11-19T14:05:43;41.20;;;23.83;;
36359;SDS011;22388;52.432;20.662;2023-11-19T14:09:09;39.33;;;22.38;;
36359;SDS011;22388;52.432;20.662;2023-11-19T14:12:34;38.75;;;22.33;;
36359;SDS011;22388;52.432;20.662;2023-11-19T14:15:59;41.03;;;24.35;;
36359;SDS011;22388;52.432;20.662;2023-11-19T14:19:23;37.83;;;23.23;;
36359;SDS011;22388;52.432;20.662;2023-11-19T14:22:48;39.30;;;20.75;;
36359;SDS011;22388;52.432;20.662;2023-11-19T14:26:12;38.38;;;22.15;;
36359;SDS011;22388;52.432;20.662;2023-11-19T14:29:36;37.58;;;22.55;;
36359;SDS011;22388;52.432;20.662;2023-11-19T14:33:01;36.03;;;22.50;;
36359;SDS011;22388;52.432;20.662;2023-11-19T14:36:26;39.20;;;22.10;;
36359;SDS011;22388;52.432;20.662;2023-11-19T14:39:50;39.67;;;23.25;;
36359;SDS011;22388;52.432;20.662;2023-11-19T14:43:14;35.58;;;21.77;;
36359;SDS011;22388;52.432;20.662;2023-11-19T14:46:38;41.25;;;22.63;;
36359;SDS011;22388;52.432;20.662;2023-11-19T14:50:02;41.05;;;21.25;;
36359;SDS011;22388;52.432;20.662;2023-11-19T14:53:28;37.25;;;22.20;;
36359;SDS011;22388;52.432;20.662;2023-11-19T14:56:52;34.85;;;21.58;;
36359;SDS011;22388;52.432;20.662;2023-11-19T15:00:16;40.30;;;22.20;;
36359;SDS011;22388;52.432;20.662;2023-11-19T15:03:40;39.15;;;23.17;;
36359;SDS011;22388;52.432;20.662;2023-11-19T15:07:06;36.72;;;23.00;;
36359;SDS011;22388;52.432;20.662;2023-11-19T15:10:30;36.38;;;22.30;;
36359;SDS011;22388;52.432;20.662;2023-11-19T15:13:55;44.83;;;24.05;;
36359;SDS011;22388;52.432;20.662;2023-11-19T15:17:20;40.90;;;23.35;;
36359;SDS011;22388;52.432;20.662;2023-11-19T15:20:45;40.13;;;23.77;;
36359;SDS011;22388;52.432;20.662;2023-11-19T15:24:10;41.22;;;23.98;;
36359;SDS011;22388;52.432;20.662;2023-11-19T15:27:35;42.33;;;24.15;;
36359;SDS011;22388;52.432;20.662;2023-11-19T15:31:00;44.72;;;24.85;;
36359;SDS011;22388;52.432;20.662;2023-11-19T15:34:25;42.45;;;24.10;;
36359;SDS011;22388;52.432;20.662;2023-11-19T15:37:49;46.03;;;24.95;;
36359;SDS011;22388;52.432;20.662;2023-11-19T15:41:14;44.80;;;25.40;;
36359;SDS011;22388;52.432;20.662;2023-11-19T15:44:38;44.92;;;24.33;;
36359;SDS011;22388;52.432;20.662;2023-11-19T15:48:04;46.15;;;25.08;;
36359;SDS011;22388;52.432;20.662;2023-11-19T15:51:29;45.90;;;26.25;;
36359;SDS011;22388;52.432;20.662;2023-11-19T15:54:55;45.78;;;25.92;;
36359;SDS011;22388;52.432;20.662;2023-11-19T15:58:20;44.25;;;25.35;;
36359;SDS011;22388;52.432;20.662;2023-11-19T16:01:50;47.60;;;27.17;;
36359;SDS011;22388;52.432;20.662;2023-11-19T16:05:15;48.08;;;26.58;;
36359;SDS011;22388;52.432;20.662;2023-11-19T16:08:39;46.10;;;26.45;;
36359;SDS011;22388;52.432;20.662;2023-11-19T16:12:04;47.35;;;26.77;;
36359;SDS011;22388;52.432;20.662;2023-11-19T16:15:28;61.55;;;31.15;;
36359;SDS011;22388;52.432;20.662;2023-11-19T16:18:54;44.97;;;25.58;;
36359;SDS011;22388;52.432;20.662;2023-11-19T16:22:18;45.00;;;26.30;;
36359;SDS011;22388;52.432;20.662;2023-11-19T16:25:44;45.08;;;26.38;;
36359;SDS011;22388;52.432;20.662;2023-11-19T16:29:08;41.88;;;25.10;;
36359;SDS011;22388;52.432;20.662;2023-11-19T16:32:33;51.72;;;26.17;;
36359;SDS011;22388;52.432;20.662;2023-11-19T16:36:00;42.50;;;25.70;;
36359;SDS011;22388;52.432;20.662;2023-11-19T16:39:24;41.03;;;24.02;;
36359;SDS011;22388;52.432;20.662;2023-11-19T16:42:48;42.33;;;23.85;;
36359;SDS011;22388;52.432;20.662;2023-11-19T16:46:14;39.55;;;23.38;;
36359;SDS011;22388;52.432;20.662;2023-11-19T16:49:38;42.22;;;25.00;;
36359;SDS011;22388;52.432;20.662;2023-11-19T16:53:04;41.45;;;24.65;;
36359;SDS011;22388;52.432;20.662;2023-11-19T16:56:29;47.95;;;24.50;;
36359;SDS011;22388;52.432;20.662;2023-11-19T16:59:53;57.25;;;28.52;;
36359;SDS011;22388;52.432;20.662;2023-11-19T17:03:17;48.67;;;25.52;;
36359;SDS011;22388;52.432;20.662;2023-11-19T17:06:42;41.55;;;23.90;;
36359;SDS011;22388;52.432;20.662;2023-11-19T17:10:06;39.75;;;22.90;;
36359;SDS011;22388;52.432;20.662;2023-11-19T17:13:32;39.63;;;22.70;;
36359;SDS011;22388;52.432;20.662;2023-11-19T17:16:57;43.88;;;24.95;;
36359;SDS011;22388;52.432;20.662;2023-11-19T17:20:21;45.20;;;25.23;;
36359;SDS011;22388;52.432;20.662;2023-11-19T17:23:45;44.78;;;23.80;;
36359;SDS011;22388;52.432;20.662;2023-11-19T17:27:09;42.55;;;24.95;;
36359;SDS011;22388;52.432;20.662;2023-11-19T17:30:34;41.22;;;22.02;;
36359;SDS011;22388;52.432;20.662;2023-11-19T17:34:01;40.35;;;22.17;;
36359;SDS011;22388;52.432;20.662;2023-11-19T17:37:25;41.33;;;23.58;;
36359;SDS011;22388;52.432;20.662;2023-11-19T17:40:51;38.88;;;22.70;;
36359;SDS011;22388;52.432;20.662;2023-11-19T17:44:16;34.10;;;21.48;;
36359;SDS011;22388;52.432;20.662;2023-11-19T17:47:46;39.08;;;22.45;;
36359;SDS011;22388;52.432;20.662;2023-11-19T17:51:10;36.08;;;21.50;;
36359;SDS011;22388;52.432;20.662;2023-11-19T17:54:35;35.20;;;20.50;;
36359;SDS011;22388;52.432;20.662;2023-11-19T17:58:00;35.50;;;20.23;;
36359;SDS011;22388;52.432;20.662;2023-11-19T18:01:24;35.38;;;20.67;;
36359;SDS011;22388;52.432;20.662;2023-11-19T18:04:49;35.78;;;21.17;;
36359;SDS011;22388;52.432;20.662;2023-11-19T18:08:14;37.75;;;20.75;;
36359;SDS011;22388;52.432;20.662;2023-11-19T18:11:40;33.72;;;20.23;;
36359;SDS011;22388;52.432;20.662;2023-11-19T18:15:07;36.83;;;20.63;;
36359;SDS011;22388;52.432;20.662;2023-11-19T18:18:32;34.35;;;21.13;;
36359;SDS011;22388;52.432;20.662;2023-11-19T18:21:57;36.78;;;20.63;;
36359;SDS011;22388;52.432;20.662;2023-11-19T18:25:21;40.80;;;22.80;;
36359;SDS011;22388;52.432;20.662;2023-11-19T18:28:45;39.38;;;21.73;;
36359;SDS011;22388;52.432;20.662;2023-11-19T18:32:11;34.90;;;20.52;;
36359;SDS011;22388;52.432;20.662;2023-11-19T18:35:36;35.05;;;20.80;;
36359;SDS011;22388;52.432;20.662;2023-11-19T18:39:04;38.25;;;21.88;;
36359;SDS011;22388;52.432;20.662;2023-11-19T18:42:30;36.53;;;20.42;;
36359;SDS011;22388;52.432;20.662;2023-11-19T18:45:54;36.63;;;21.45;;
36359;SDS011;22388;52.432;20.662;2023-11-19T18:49:19;37.20;;;20.90;;
36359;SDS011;22388;52.432;20.662;2023-11-19T18:52:43;37.00;;;21.70;;
36359;SDS011;22388;52.432;20.662;2023-11-19T18:56:09;38.45;;;20.70;;
36359;SDS011;22388;52.432;20.662;2023-11-19T18:59:33;33.45;;;19.95;;
36359;SDS011;22388;52.432;20.662;2023-11-19T19:02:57;38.50;;;22.00;;
36359;SDS011;22388;52.432;20.662;2023-11-19T19:06:21;32.85;;;19.35;;
36359;SDS011;22388;52.432;20.662;2023-11-19T19:09:46;35.13;;;20.30;;
36359;SDS011;22388;52.432;20.662;2023-11-19T19:13:10;35.67;;;20.35;;
36359;SDS011;22388;52.432;20.662;2023-11-19T19:16:34;35.08;;;20.85;;
36359;SDS011;22388;52.432;20.662;2023-11-19T19:19:58;30.83;;;19.02;;
36359;SDS011;22388;52.432;20.662;2023-11-19T19:23:22;32.97;;;19.80;;
36359;SDS011;22388;52.432;20.662;2023-11-19T19:26:46;32.75;;;19.60;;
36359;SDS011;22388;52.432;20.662;2023-11-19T19:30:10;31.92;;;18.88;;
36359;SDS011;22388;52.432;20.662;2023-11-19T19:33:42;34.95;;;20.42;;
36359;SDS011;22388;52.432;20.662;2023-11-19T19:37:06;30.77;;;18.48;;
36359;SDS011;22388;52.432;20.662;2023-11-19T19:40:30;29.35;;;18.15;;
36359;SDS011;22388;52.432;20.662;2023-11-19T19:43:55;29.40;;;17.58;;
36359;SDS011;22388;52.432;20.662;2023-11-19T19:47:19;29.15;;;18.10;;
36359;SDS011;22388;52.432;20.662;2023-11-19T19:50:43;35.20;;;20.48;;
36359;SDS011;22388;52.432;20.662;2023-11-19T19:54:07;30.13;;;18.42;;
36359;SDS011;22388;52.432;20.662;2023-11-19T19:57:32;28.00;;;17.58;;
36359;SDS011;22388;52.432;20.662;2023-11-19T20:00:57;31.27;;;18.50;;
36359;SDS011;22388;52.432;20.662;2023-11-19T20:04:21;27.65;;;17.73;;